createdAt,value
2017-07-10T00:00:15.289Z,86.29
2017-07-10T00:01:15.867Z,86.19
2017-07-10T00:02:16.444Z,87.15
2017-07-10T00:03:17.021Z,87.25
2017-07-10T00:04:17.600Z,87.87
2017-07-10T00:05:18.177Z,86.33
2017-07-10T00:06:18.754Z,86.62
2017-07-10T00:07:19.334Z,86.52
2017-07-10T00:08:19.914Z,87.01
2017-07-10T00:09:20.491Z,86.72
2017-07-10T00:10:21.071Z,87.49
2017-07-10T00:11:21.649Z,87.39
2017-07-10T00:12:22.229Z,87.35
2017-07-10T00:13:22.806Z,88.64
2017-07-10T00:14:23.389Z,86.72
2017-07-10T00:15:23.962Z,87.44
2017-07-10T00:16:24.543Z,88.11
2017-07-10T00:17:25.121Z,88.11
2017-07-10T00:18:25.699Z,87.73
2017-07-10T00:19:26.278Z,88.69
2017-07-10T00:20:26.855Z,88.88
2017-07-10T00:21:27.433Z,88.88
2017-07-10T00:22:28.011Z,89.36
2017-07-10T00:23:28.588Z,88.21
2017-07-10T00:24:29.166Z,88.79
2017-07-10T00:25:29.742Z,87.92
2017-07-10T00:26:30.319Z,88.49
2017-07-10T00:27:30.895Z,88.45
2017-07-10T00:28:31.473Z,87.54
2017-07-10T00:29:32.063Z,88.45
2017-07-10T00:30:32.640Z,89.46
2017-07-10T00:31:33.217Z,89.61
2017-07-10T00:32:33.795Z,89.32
2017-07-10T00:33:34.371Z,90.47
2017-07-10T00:34:34.960Z,90.66
2017-07-10T00:35:35.537Z,89.61
2017-07-10T00:36:36.114Z,89.12
2017-07-10T00:37:36.693Z,89.99
2017-07-10T00:38:37.271Z,91.66
2017-07-10T00:39:37.849Z,90.22
2017-07-10T00:40:38.430Z,88.49
2017-07-10T00:41:39.016Z,89.22
2017-07-10T00:42:39.604Z,88.54
2017-07-10T00:43:40.183Z,87.82
2017-07-10T00:44:40.760Z,89.31
2017-07-10T00:45:41.339Z,88.21
2017-07-10T00:46:41.916Z,88.88
2017-07-10T00:47:42.494Z,89.84
2017-07-10T00:48:43.070Z,88.21
2017-07-10T00:49:43.648Z,89.55
2017-07-10T00:50:44.224Z,89.17
2017-07-10T00:51:44.802Z,90.22
2017-07-10T00:52:45.379Z,89.12
2017-07-10T00:53:45.959Z,89.46
2017-07-10T00:54:46.535Z,90.42
2017-07-10T00:55:47.114Z,89.07
2017-07-10T00:56:47.695Z,91.28
2017-07-10T00:57:48.271Z,89.51
2017-07-10T00:58:48.849Z,90.22
2017-07-10T00:59:49.425Z,90.42
2017-07-10T01:00:50.003Z,90.66
2017-07-10T01:01:50.582Z,90.80
2017-07-10T01:02:51.160Z,89.46
2017-07-10T01:03:51.742Z,89.61
2017-07-10T01:04:52.316Z,90.18
2017-07-10T01:05:52.898Z,90.28
2017-07-10T01:06:56.506Z,91.52
2017-07-10T01:07:57.095Z,91.62
2017-07-10T01:08:57.676Z,91.05
2017-07-10T01:09:58.255Z,90.56
2017-07-10T01:10:58.832Z,90.95
2017-07-10T01:11:59.421Z,91.24
2017-07-10T01:12:59.999Z,91.52
2017-07-10T01:14:00.578Z,91.91
2017-07-10T01:15:01.155Z,92.29
2017-07-10T01:16:01.731Z,91.81
2017-07-10T01:17:02.308Z,92.48
2017-07-10T01:18:02.887Z,92.29
2017-07-10T01:19:03.475Z,91.91
2017-07-10T01:20:04.053Z,92.19
2017-07-10T01:21:04.631Z,92.10
2017-07-10T01:22:05.208Z,92.29
2017-07-10T01:23:05.785Z,91.81
2017-07-10T01:24:06.362Z,91.52
2017-07-10T01:25:06.952Z,91.72
2017-07-10T01:26:07.530Z,91.42
2017-07-10T01:27:08.106Z,91.62
2017-07-10T01:28:08.684Z,92.19
2017-07-10T01:29:09.262Z,92.68
2017-07-10T01:30:09.842Z,92.58
2017-07-10T01:31:10.419Z,91.47
2017-07-10T01:32:11.009Z,91.28
2017-07-10T01:33:11.599Z,91.24
2017-07-10T01:34:12.176Z,92.19
2017-07-10T01:35:12.753Z,91.42
2017-07-10T01:36:13.331Z,91.86
2017-07-10T01:37:13.921Z,91.19
2017-07-10T01:38:14.499Z,90.56
2017-07-10T01:39:15.075Z,91.42
2017-07-10T01:40:15.653Z,91.24
2017-07-10T01:41:16.230Z,92.48
2017-07-10T01:42:16.810Z,92.72
2017-07-10T01:43:17.388Z,92.68
2017-07-10T01:44:17.966Z,92.29
2017-07-10T01:45:18.545Z,92.48
2017-07-10T01:46:19.123Z,92.44
2017-07-10T01:47:19.701Z,93.49
2017-07-10T01:48:20.276Z,94.88
2017-07-10T01:49:20.854Z,93.25
2017-07-10T01:50:21.430Z,93.49
2017-07-10T01:51:22.008Z,93.97
2017-07-10T01:52:22.587Z,93.49
2017-07-10T01:53:23.165Z,93.25
2017-07-10T01:54:23.744Z,93.78
2017-07-10T01:55:24.320Z,93.49
2017-07-10T01:56:24.898Z,93.88
2017-07-10T01:57:25.479Z,93.88
2017-07-10T01:58:26.053Z,94.07
2017-07-10T01:59:26.631Z,93.97
2017-07-10T02:00:27.206Z,94.26
2017-07-10T02:01:27.784Z,94.02
2017-07-10T02:02:28.364Z,93.88
2017-07-10T02:03:28.942Z,94.07
2017-07-10T02:04:29.521Z,95.07
2017-07-10T02:05:30.099Z,94.40
2017-07-10T02:06:30.677Z,93.06
2017-07-10T02:07:31.254Z,94.21
2017-07-10T02:08:31.830Z,91.42
2017-07-10T02:09:32.410Z,91.05
2017-07-10T02:10:32.987Z,93.77
2017-07-10T02:11:33.568Z,91.91
2017-07-10T02:12:34.144Z,93.35
2017-07-10T02:13:35.423Z,93.88
2017-07-10T02:14:36.001Z,95.21
2017-07-10T02:15:36.579Z,95.46
2017-07-10T02:16:37.157Z,94.98
2017-07-10T02:17:37.746Z,94.40
2017-07-10T02:18:38.324Z,93.44
2017-07-10T02:19:38.911Z,92.48
2017-07-10T02:20:39.489Z,94.21
2017-07-10T02:21:40.067Z,93.35
2017-07-10T02:22:40.644Z,92.48
2017-07-10T02:23:41.221Z,93.25
2017-07-10T02:24:41.799Z,95.21
2017-07-10T02:25:42.375Z,91.96
2017-07-10T02:26:42.953Z,94.02
2017-07-10T02:27:43.528Z,94.31
2017-07-10T02:28:44.106Z,94.88
2017-07-10T02:29:44.685Z,93.73
2017-07-10T02:30:45.263Z,94.12
2017-07-10T02:31:45.851Z,93.15
2017-07-10T02:32:46.429Z,93.92
2017-07-10T02:33:47.007Z,94.49
2017-07-10T02:34:47.586Z,94.02
2017-07-10T02:35:48.166Z,94.59
2017-07-10T02:36:48.743Z,93.35
2017-07-10T02:37:49.333Z,93.92
2017-07-10T02:38:49.911Z,93.54
2017-07-10T02:39:50.490Z,93.73
2017-07-10T02:40:51.069Z,93.82
2017-07-10T02:41:51.646Z,94.31
2017-07-10T02:42:52.223Z,93.92
2017-07-10T02:43:52.800Z,94.64
2017-07-10T02:44:53.389Z,93.77
2017-07-10T02:45:53.967Z,94.02
2017-07-10T02:46:54.545Z,93.54
2017-07-10T02:47:55.122Z,94.12
2017-07-10T02:48:55.699Z,95.26
2017-07-10T02:49:56.276Z,95.26
2017-07-10T02:50:56.854Z,94.49
2017-07-10T02:51:57.447Z,95.41
2017-07-10T02:52:58.021Z,96.08
2017-07-10T02:53:58.598Z,97.09
2017-07-10T02:54:59.177Z,95.17
2017-07-10T02:55:59.754Z,94.88
2017-07-10T02:57:00.332Z,96.32
2017-07-10T02:58:00.911Z,95.07
2017-07-10T02:59:01.491Z,94.79
2017-07-10T03:00:02.081Z,95.41
2017-07-10T03:01:02.660Z,95.41
2017-07-10T03:02:03.239Z,95.84
2017-07-10T03:03:03.817Z,94.98
2017-07-10T03:04:04.407Z,95.65
2017-07-10T03:05:04.986Z,95.46
2017-07-10T03:06:05.564Z,95.17
2017-07-10T03:07:06.155Z,95.55
2017-07-10T03:08:06.741Z,96.18
2017-07-10T03:09:07.310Z,96.42
2017-07-10T03:10:07.888Z,97.04
2017-07-10T03:11:08.465Z,97.04
2017-07-10T03:12:09.043Z,98.24
2017-07-10T03:13:09.624Z,96.47
2017-07-10T03:14:10.202Z,97.47
2017-07-10T03:15:10.781Z,96.32
2017-07-10T03:16:11.359Z,97.23
2017-07-10T03:17:11.937Z,97.42
2017-07-10T03:18:12.515Z,97.52
2017-07-10T03:19:13.092Z,97.42
2017-07-10T03:20:13.669Z,98.38
2017-07-10T03:21:14.248Z,97.61
2017-07-10T03:22:14.828Z,97.95
2017-07-10T03:23:15.414Z,97.66
2017-07-10T03:24:15.991Z,96.22
2017-07-10T03:25:16.571Z,96.22
2017-07-10T03:26:17.148Z,96.51
2017-07-10T03:27:17.726Z,96.18
2017-07-10T03:28:18.304Z,97.14
2017-07-10T03:29:18.882Z,97.33
2017-07-10T03:30:19.460Z,96.85
2017-07-10T03:31:20.037Z,97.04
2017-07-10T03:32:20.614Z,97.33
2017-07-10T03:33:21.191Z,96.85
2017-07-10T03:34:21.770Z,98.19
2017-07-10T03:35:22.349Z,98.10
2017-07-10T03:36:22.926Z,98.48
2017-07-10T03:37:23.503Z,98.48
2017-07-10T03:38:24.082Z,99.99
2017-07-10T03:39:24.659Z,98.77
2017-07-10T03:40:25.235Z,98.57
2017-07-10T03:41:25.813Z,97.90
2017-07-10T03:42:26.388Z,99.01
2017-07-10T03:43:26.967Z,96.51
2017-07-10T03:44:27.546Z,97.23
2017-07-10T03:45:28.126Z,98.19
2017-07-10T03:46:28.703Z,99.05
2017-07-10T03:47:29.283Z,99.91
2017-07-10T03:48:29.861Z,99.99
2017-07-10T03:49:30.440Z,99.99
2017-07-10T03:50:31.021Z,99.99
2017-07-10T03:51:31.598Z,99.99
2017-07-10T03:52:32.178Z,99.99
2017-07-10T03:53:32.757Z,99.99
2017-07-10T03:54:33.347Z,99.99
2017-07-10T03:55:33.926Z,99.99
2017-07-10T03:56:34.503Z,99.99
2017-07-10T03:57:35.081Z,99.99
2017-07-10T03:58:35.659Z,99.10
2017-07-10T03:59:36.238Z,97.95
2017-07-10T04:00:36.820Z,99.34
2017-07-10T04:01:37.397Z,99.53
2017-07-10T04:02:37.976Z,99.73
2017-07-10T04:03:38.554Z,99.63
2017-07-10T04:04:39.134Z,99.99
2017-07-10T04:05:39.714Z,99.99
2017-07-10T04:06:40.293Z,99.99
2017-07-10T04:07:40.881Z,99.53
2017-07-10T04:08:41.461Z,99.99
2017-07-10T04:09:42.039Z,99.99
2017-07-10T04:10:42.621Z,99.10
2017-07-10T04:11:43.196Z,98.62
2017-07-10T04:12:43.773Z,98.77
2017-07-10T04:13:44.351Z,99.91
2017-07-10T04:14:44.930Z,99.99
2017-07-10T04:15:45.513Z,99.99
2017-07-10T04:16:46.092Z,99.99
2017-07-10T04:17:46.668Z,99.99
2017-07-10T04:18:47.247Z,99.99
2017-07-10T04:19:47.838Z,99.99
2017-07-10T04:20:48.416Z,99.99
2017-07-10T04:21:48.994Z,99.99
2017-07-10T04:22:49.577Z,99.99
2017-07-10T04:23:50.154Z,99.99
2017-07-10T04:24:50.733Z,99.99
2017-07-10T04:25:51.323Z,99.99
2017-07-10T04:26:51.902Z,99.99
2017-07-10T04:27:52.481Z,99.99
2017-07-10T04:28:53.063Z,99.99
2017-07-10T04:29:53.637Z,99.99
2017-07-10T04:30:54.217Z,99.99
2017-07-10T04:31:54.797Z,99.99
2017-07-10T04:32:55.385Z,99.99
2017-07-10T04:33:55.977Z,99.99
2017-07-10T04:34:56.553Z,99.99
2017-07-10T04:35:57.132Z,99.99
2017-07-10T04:36:57.728Z,99.99
2017-07-10T04:37:58.293Z,99.99
2017-07-10T04:38:58.869Z,99.99
2017-07-10T04:39:59.448Z,99.99
2017-07-10T04:41:00.031Z,99.99
2017-07-10T04:42:00.604Z,99.99
2017-07-10T04:43:01.186Z,99.99
2017-07-10T04:44:01.765Z,99.99
2017-07-10T04:45:02.345Z,98.96
2017-07-10T04:46:02.922Z,99.99
2017-07-10T04:47:03.500Z,99.99
2017-07-10T04:48:04.078Z,99.99
2017-07-10T04:49:04.658Z,99.99
2017-07-10T04:50:05.239Z,99.99
2017-07-10T04:51:05.817Z,99.99
2017-07-10T04:52:06.395Z,99.99
2017-07-10T04:53:06.999Z,99.99
2017-07-10T04:54:07.552Z,99.77
2017-07-10T04:55:08.137Z,99.99
2017-07-10T04:56:08.712Z,99.99
2017-07-10T04:57:09.289Z,99.99
2017-07-10T04:58:09.868Z,99.99
2017-07-10T04:59:10.459Z,99.99
2017-07-10T05:00:11.038Z,99.99
2017-07-10T05:01:11.617Z,99.99
2017-07-10T05:02:12.196Z,99.99
2017-07-10T05:03:12.777Z,99.99
2017-07-10T05:04:13.355Z,99.99
2017-07-10T05:05:13.947Z,99.99
2017-07-10T05:06:14.525Z,99.99
2017-07-10T05:07:15.104Z,99.99
2017-07-10T05:08:15.682Z,99.99
2017-07-10T05:09:16.260Z,99.99
2017-07-10T05:10:16.838Z,99.99
2017-07-10T05:11:17.417Z,99.99
2017-07-10T05:12:17.997Z,99.99
2017-07-10T05:13:18.578Z,99.99
2017-07-10T05:14:19.155Z,99.99
2017-07-10T05:15:19.734Z,99.99
2017-07-10T05:16:20.313Z,99.99
2017-07-10T05:17:20.891Z,99.99
2017-07-10T05:18:21.473Z,99.99
2017-07-10T05:19:22.050Z,99.99
2017-07-10T05:20:22.629Z,99.99
2017-07-10T05:21:23.205Z,99.99
2017-07-10T05:22:23.784Z,99.99
2017-07-10T05:23:24.362Z,99.99
2017-07-10T05:24:24.941Z,99.99
2017-07-10T05:25:25.522Z,99.99
2017-07-10T05:26:26.101Z,99.99
2017-07-10T05:27:26.679Z,99.99
2017-07-10T05:28:27.257Z,99.99
2017-07-10T05:29:27.837Z,99.99
2017-07-10T05:30:28.419Z,99.99
2017-07-10T05:31:28.998Z,99.99
2017-07-10T05:32:29.576Z,99.99
2017-07-10T05:33:30.156Z,99.99
2017-07-10T05:34:30.735Z,99.99
2017-07-10T05:35:31.326Z,99.99
2017-07-10T05:36:31.904Z,99.99
2017-07-10T05:37:32.485Z,99.99
2017-07-10T05:38:33.064Z,99.99
2017-07-10T05:39:33.643Z,99.99
2017-07-10T05:40:34.234Z,99.99
2017-07-10T05:41:34.800Z,99.99
2017-07-10T05:42:35.380Z,99.99
2017-07-10T05:43:35.964Z,99.99
2017-07-10T05:44:36.541Z,99.99
2017-07-10T05:45:37.120Z,99.99
2017-07-10T05:46:37.712Z,99.99
2017-07-10T05:47:38.291Z,99.99
2017-07-10T05:48:38.874Z,99.99
2017-07-10T05:49:39.453Z,99.99
2017-07-10T05:50:40.032Z,99.99
2017-07-10T05:51:40.612Z,99.99
2017-07-10T05:52:41.190Z,99.99
2017-07-10T05:53:41.771Z,99.99
2017-07-10T05:54:42.352Z,99.99
2017-07-10T05:55:42.930Z,99.99
2017-07-10T05:56:43.514Z,99.99
2017-07-10T05:57:44.089Z,99.99
2017-07-10T05:58:44.667Z,99.99
2017-07-10T05:59:45.249Z,99.99
2017-07-10T06:00:45.827Z,99.99
2017-07-10T06:01:46.407Z,99.99
2017-07-10T06:02:46.986Z,99.99
2017-07-10T06:03:47.565Z,99.99
2017-07-10T06:04:48.150Z,99.99
2017-07-10T06:05:48.725Z,99.99
2017-07-10T06:06:49.303Z,99.99
2017-07-10T06:07:49.882Z,99.99
2017-07-10T06:08:50.462Z,99.99
2017-07-10T06:09:51.044Z,99.99
2017-07-10T06:10:51.623Z,99.99
2017-07-10T06:11:52.214Z,99.99
2017-07-10T06:12:52.805Z,99.99
2017-07-10T06:13:53.387Z,99.99
2017-07-10T06:14:53.964Z,99.99
2017-07-10T06:15:54.544Z,99.99
2017-07-10T06:16:55.124Z,99.99
2017-07-10T06:17:55.715Z,99.99
2017-07-10T06:18:56.295Z,99.99
2017-07-10T06:19:56.877Z,99.99
2017-07-10T06:20:57.457Z,99.99
2017-07-10T06:21:58.045Z,99.99
2017-07-10T06:22:58.620Z,99.99
2017-07-10T06:23:59.202Z,99.99
2017-07-10T06:24:59.782Z,99.99
2017-07-10T06:26:00.363Z,99.99
2017-07-10T06:27:00.944Z,99.99
2017-07-10T06:28:01.526Z,99.99
2017-07-10T06:29:02.107Z,99.99
2017-07-10T06:30:02.693Z,99.99
2017-07-10T06:31:03.270Z,99.99
2017-07-10T06:32:03.851Z,99.99
2017-07-10T06:33:04.432Z,99.99
2017-07-10T06:34:05.013Z,99.99
2017-07-10T06:35:05.594Z,99.99
2017-07-10T06:36:06.178Z,99.99
2017-07-10T06:37:06.759Z,99.99
2017-07-10T06:38:07.340Z,99.99
2017-07-10T06:39:07.922Z,99.99
2017-07-10T06:40:08.504Z,99.99
2017-07-10T06:41:09.085Z,99.99
2017-07-10T06:42:09.667Z,99.99
2017-07-10T06:43:10.248Z,99.99
2017-07-10T06:44:10.830Z,99.99
2017-07-10T06:45:11.411Z,99.99
2017-07-10T06:46:11.993Z,99.99
2017-07-10T06:47:12.576Z,99.99
2017-07-10T06:48:13.157Z,99.99
2017-07-10T06:49:13.743Z,99.99
2017-07-10T06:50:14.321Z,99.99
2017-07-10T06:51:14.900Z,99.99
2017-07-10T06:52:15.480Z,99.99
2017-07-10T06:53:16.074Z,99.99
2017-07-10T06:54:16.654Z,99.99
2017-07-10T06:55:17.248Z,99.58
2017-07-10T06:56:17.829Z,99.99
2017-07-10T06:57:18.412Z,99.99
2017-07-10T06:58:18.993Z,99.99
2017-07-10T06:59:19.575Z,99.35
2017-07-10T07:00:20.156Z,98.68
2017-07-10T07:01:20.748Z,99.99
2017-07-10T07:02:21.329Z,98.63
2017-07-10T07:03:21.913Z,98.34
2017-07-10T07:04:22.494Z,99.01
2017-07-10T07:05:23.075Z,98.10
2017-07-10T07:06:23.658Z,99.99
2017-07-10T07:07:24.243Z,99.99
2017-07-10T07:08:24.822Z,99.99
2017-07-10T07:09:25.403Z,99.99
2017-07-10T07:10:25.985Z,99.99
2017-07-10T07:11:26.576Z,99.99
2017-07-10T07:12:27.159Z,98.44
2017-07-10T07:13:27.741Z,97.67
2017-07-10T07:14:28.322Z,98.05
2017-07-10T07:15:28.904Z,98.10
2017-07-10T07:16:29.487Z,96.37
2017-07-10T07:17:30.069Z,96.08
2017-07-10T07:18:30.650Z,93.91
2017-07-10T07:19:31.233Z,92.95
2017-07-10T07:20:31.816Z,94.35
2017-07-10T07:21:32.397Z,97.47
2017-07-10T07:22:32.978Z,98.19
2017-07-10T07:23:33.563Z,97.04
2017-07-10T07:24:34.145Z,95.75
2017-07-10T07:25:34.725Z,95.50
2017-07-10T07:26:35.306Z,96.22
2017-07-10T07:27:35.901Z,95.98
2017-07-10T07:28:36.484Z,95.60
2017-07-10T07:29:37.066Z,94.68
2017-07-10T07:30:37.647Z,93.15
2017-07-10T07:31:38.228Z,93.19
2017-07-10T07:32:38.812Z,94.35
2017-07-10T07:33:39.405Z,95.60
2017-07-10T07:34:39.988Z,94.20
2017-07-10T07:35:40.572Z,92.18
2017-07-10T07:36:41.154Z,94.30
2017-07-10T07:37:41.735Z,94.97
2017-07-10T07:38:42.320Z,95.45
2017-07-10T07:39:42.903Z,96.66
2017-07-10T07:40:43.483Z,96.17
2017-07-10T07:41:44.071Z,96.37
2017-07-10T07:42:44.649Z,96.08
2017-07-10T07:43:45.229Z,96.32
2017-07-10T07:44:45.811Z,94.68
2017-07-10T07:45:46.394Z,94.40
2017-07-10T07:46:46.977Z,93.87
2017-07-10T07:47:47.571Z,93.48
2017-07-10T07:48:48.164Z,93.57
2017-07-10T07:49:48.758Z,94.20
2017-07-10T07:50:49.342Z,94.01
2017-07-10T07:51:49.925Z,96.08
2017-07-10T07:52:50.506Z,94.87
2017-07-10T07:53:51.089Z,94.01
2017-07-10T07:54:51.673Z,94.30
2017-07-10T07:55:52.256Z,95.55
2017-07-10T07:56:52.838Z,96.03
2017-07-10T07:57:53.423Z,95.65
2017-07-10T07:58:54.016Z,95.55
2017-07-10T07:59:54.599Z,94.73
2017-07-10T08:00:55.182Z,93.48
2017-07-10T08:01:55.765Z,92.76
2017-07-10T08:02:56.359Z,92.61
2017-07-10T08:03:56.941Z,92.66
2017-07-10T08:04:57.535Z,93.00
2017-07-10T08:05:58.115Z,92.56
2017-07-10T08:06:58.698Z,92.66
2017-07-10T08:07:59.293Z,91.79
2017-07-10T08:08:59.876Z,92.27
2017-07-10T08:10:00.457Z,91.99
2017-07-10T08:11:01.040Z,93.14
2017-07-10T08:12:01.624Z,92.47
2017-07-10T08:13:02.207Z,91.50
2017-07-10T08:14:02.790Z,91.45
2017-07-10T08:15:03.371Z,91.06
2017-07-10T08:16:03.954Z,91.16
2017-07-10T08:17:04.537Z,91.21
2017-07-10T08:18:05.119Z,91.69
2017-07-10T08:19:05.702Z,92.27
2017-07-10T08:20:06.285Z,92.66
2017-07-10T08:21:06.867Z,91.99
2017-07-10T08:22:07.450Z,91.26
2017-07-10T08:23:08.032Z,90.78
2017-07-10T08:24:08.616Z,91.41
2017-07-10T08:25:09.201Z,91.31
2017-07-10T08:26:09.783Z,91.26
2017-07-10T08:27:10.367Z,90.97
2017-07-10T08:28:10.951Z,90.58
2017-07-10T08:29:11.534Z,91.16
2017-07-10T08:30:12.117Z,91.36
2017-07-10T08:31:12.701Z,90.88
2017-07-10T08:32:13.283Z,91.93
2017-07-10T08:33:13.866Z,92.76
2017-07-10T08:34:14.448Z,92.03
2017-07-10T08:35:15.031Z,91.26
2017-07-10T08:36:15.616Z,90.97
2017-07-10T08:37:16.197Z,90.58
2017-07-10T08:38:16.780Z,90.88
2017-07-10T08:39:17.365Z,90.48
2017-07-10T08:40:17.947Z,90.97
2017-07-10T08:41:18.531Z,90.68
2017-07-10T08:42:19.115Z,90.39
2017-07-10T08:43:19.698Z,90.39
2017-07-10T08:44:20.284Z,90.48
2017-07-10T08:45:20.863Z,91.06
2017-07-10T08:46:21.447Z,90.78
2017-07-10T08:47:22.030Z,90.30
2017-07-10T08:48:22.615Z,90.39
2017-07-10T08:49:23.195Z,90.88
2017-07-10T08:50:23.779Z,89.72
2017-07-10T08:51:24.362Z,90.83
2017-07-10T08:52:24.944Z,91.89
2017-07-10T08:53:25.530Z,92.42
2017-07-10T08:54:26.113Z,93.19
2017-07-10T08:55:26.697Z,91.99
2017-07-10T08:56:27.278Z,92.08
2017-07-10T08:57:27.863Z,92.08
2017-07-10T08:58:28.458Z,91.84
2017-07-10T08:59:29.043Z,90.06
2017-07-10T09:00:29.624Z,90.92
2017-07-10T09:01:30.207Z,91.41
2017-07-10T09:02:30.791Z,91.36
2017-07-10T09:03:31.373Z,91.21
2017-07-10T09:04:31.968Z,91.16
2017-07-10T09:05:32.553Z,89.72
2017-07-10T09:06:33.134Z,89.18
2017-07-10T09:07:33.716Z,88.85
2017-07-10T09:08:34.300Z,89.62
2017-07-10T09:09:34.883Z,90.20
2017-07-10T09:10:35.468Z,89.53
2017-07-10T09:11:36.048Z,89.86
2017-07-10T09:12:36.631Z,89.67
2017-07-10T09:13:37.216Z,89.72
2017-07-10T09:14:37.798Z,89.81
2017-07-10T09:15:38.382Z,90.44
2017-07-10T09:16:38.965Z,90.05
2017-07-10T09:17:39.547Z,89.14
2017-07-10T09:18:40.130Z,89.81
2017-07-10T09:19:40.714Z,89.47
2017-07-10T09:20:41.296Z,89.76
2017-07-10T09:21:41.891Z,88.22
2017-07-10T09:22:42.475Z,89.28
2017-07-10T09:23:43.058Z,88.46
2017-07-10T09:24:43.644Z,89.04
2017-07-10T09:25:44.224Z,88.70
2017-07-10T09:26:44.808Z,89.81
2017-07-10T09:27:45.390Z,87.64
2017-07-10T09:28:45.973Z,87.83
2017-07-10T09:29:46.558Z,86.52
2017-07-10T09:30:47.148Z,87.06
2017-07-10T09:31:47.726Z,86.52
2017-07-10T09:32:48.311Z,86.72
2017-07-10T09:33:48.895Z,86.48
2017-07-10T09:34:49.479Z,86.04
2017-07-10T09:35:50.063Z,85.85
2017-07-10T09:36:50.650Z,85.71
2017-07-10T09:37:51.234Z,86.33
2017-07-10T09:38:51.817Z,86.39
2017-07-10T09:39:52.404Z,87.01
2017-07-10T09:40:52.993Z,86.14
2017-07-10T09:41:53.573Z,85.94
2017-07-10T09:42:54.157Z,85.94
2017-07-10T09:43:54.740Z,86.24
2017-07-10T09:44:55.326Z,86.72
2017-07-10T09:45:55.912Z,86.91
2017-07-10T09:46:56.496Z,85.99
2017-07-10T09:47:57.080Z,85.22
2017-07-10T09:48:57.666Z,84.68
2017-07-10T09:49:58.250Z,83.85
2017-07-10T09:50:58.835Z,82.89
2017-07-10T09:51:59.426Z,82.69
2017-07-10T09:53:00.005Z,82.15
2017-07-10T09:54:00.589Z,81.38
2017-07-10T09:55:01.184Z,80.65
2017-07-10T09:56:01.768Z,79.97
2017-07-10T09:57:02.353Z,79.29
2017-07-10T09:58:02.937Z,78.85
2017-07-10T09:59:03.524Z,78.94
2017-07-10T10:00:04.108Z,78.75
2017-07-10T10:01:04.691Z,77.88
2017-07-10T10:02:05.274Z,78.23
2017-07-10T10:03:05.859Z,78.94
2017-07-10T10:04:06.445Z,77.34
2017-07-10T10:05:07.041Z,78.00
2017-07-10T10:06:07.628Z,78.91
2017-07-10T10:07:08.211Z,80.03
2017-07-10T10:08:08.798Z,78.77
2017-07-10T10:09:09.382Z,79.41
2017-07-10T10:10:09.968Z,80.51
2017-07-10T10:11:10.553Z,79.29
2017-07-10T10:12:11.137Z,79.74
2017-07-10T10:13:11.723Z,79.78
2017-07-10T10:14:12.310Z,78.94
2017-07-10T10:15:12.895Z,78.27
2017-07-10T10:16:13.482Z,78.96
2017-07-10T10:17:14.067Z,79.45
2017-07-10T10:18:14.650Z,79.39
2017-07-10T10:19:15.235Z,78.27
2017-07-10T10:20:15.821Z,77.88
2017-07-10T10:21:16.406Z,78.42
2017-07-10T10:22:17.004Z,78.23
2017-07-10T10:23:17.588Z,77.88
2017-07-10T10:24:18.174Z,76.86
2017-07-10T10:25:18.760Z,77.01
2017-07-10T10:26:19.347Z,77.24
2017-07-10T10:27:19.929Z,76.18
2017-07-10T10:28:20.515Z,76.12
2017-07-10T10:29:21.101Z,74.41
2017-07-10T10:30:21.686Z,75.46
2017-07-10T10:31:22.272Z,76.72
2017-07-10T10:32:22.859Z,76.28
2017-07-10T10:33:23.444Z,75.60
2017-07-10T10:34:24.030Z,75.24
2017-07-10T10:35:24.616Z,76.04
2017-07-10T10:36:25.200Z,76.53
2017-07-10T10:37:25.786Z,77.30
2017-07-10T10:38:26.372Z,78.17
2017-07-10T10:39:26.956Z,77.59
2017-07-10T10:40:27.542Z,75.98
2017-07-10T10:41:28.128Z,74.96
2017-07-10T10:42:28.714Z,74.28
2017-07-10T10:43:29.301Z,74.63
2017-07-10T10:44:29.887Z,75.02
2017-07-10T10:45:30.473Z,76.21
2017-07-10T10:46:31.058Z,75.48
2017-07-10T10:47:31.645Z,75.70
2017-07-10T10:48:32.228Z,75.60
2017-07-10T10:49:32.812Z,75.63
2017-07-10T10:50:33.399Z,75.24
2017-07-10T10:51:33.981Z,75.05
2017-07-10T10:52:34.565Z,75.83
2017-07-10T10:53:35.151Z,75.83
2017-07-10T10:54:35.736Z,76.43
2017-07-10T10:55:36.321Z,77.20
2017-07-10T10:56:36.908Z,78.13
2017-07-10T10:57:37.489Z,79.35
2017-07-10T10:58:38.074Z,79.39
2017-07-10T10:59:38.659Z,80.22
2017-07-10T11:00:39.242Z,81.19
2017-07-10T11:01:39.830Z,80.90
2017-07-10T11:02:40.412Z,81.87
2017-07-10T11:03:41.008Z,82.06
2017-07-10T11:04:41.605Z,81.77
2017-07-10T11:05:42.190Z,81.04
2017-07-10T11:06:42.775Z,79.87
2017-07-10T11:07:43.360Z,80.46
2017-07-10T11:08:43.953Z,79.82
2017-07-10T11:09:44.538Z,79.78
2017-07-10T11:10:45.124Z,79.78
2017-07-10T11:11:45.710Z,79.97
2017-07-10T11:12:46.298Z,79.97
2017-07-10T11:13:46.879Z,79.49
2017-07-10T11:14:47.466Z,79.62
2017-07-10T11:15:48.052Z,79.58
2017-07-10T11:16:48.638Z,79.43
2017-07-10T11:17:49.225Z,79.49
2017-07-10T11:18:49.806Z,79.87
2017-07-10T11:19:50.391Z,79.58
2017-07-10T11:20:50.977Z,79.68
2017-07-10T11:21:51.574Z,79.14
2017-07-10T11:22:52.158Z,78.75
2017-07-10T11:23:52.743Z,78.27
2017-07-10T11:24:53.327Z,78.31
2017-07-10T11:25:53.911Z,77.59
2017-07-10T11:26:54.497Z,78.61
2017-07-10T11:27:55.079Z,79.29
2017-07-10T11:28:55.665Z,78.71
2017-07-10T11:29:56.248Z,79.10
2017-07-10T11:30:56.833Z,79.04
2017-07-10T11:31:57.417Z,78.46
2017-07-10T11:32:58.004Z,78.94
2017-07-10T11:33:58.588Z,78.31
2017-07-10T11:34:59.171Z,77.88
2017-07-10T11:35:59.757Z,78.85
2017-07-10T11:37:00.341Z,79.10
2017-07-10T11:38:00.936Z,79.58
2017-07-10T11:39:01.523Z,79.10
2017-07-10T11:40:02.106Z,79.87
2017-07-10T11:41:02.689Z,79.35
2017-07-10T11:42:03.276Z,79.68
2017-07-10T11:43:03.861Z,78.85
2017-07-10T11:44:04.446Z,77.59
2017-07-10T11:45:05.033Z,76.46
2017-07-10T11:46:05.631Z,76.56
2017-07-10T11:47:06.214Z,76.91
2017-07-10T11:48:06.798Z,76.91
2017-07-10T11:49:07.384Z,78.02
2017-07-10T11:50:07.981Z,76.66
2017-07-10T11:51:08.567Z,76.95
2017-07-10T11:52:09.154Z,77.11
2017-07-10T11:53:09.739Z,78.11
2017-07-10T11:54:10.324Z,77.40
2017-07-10T11:55:10.911Z,77.05
2017-07-10T11:56:11.509Z,76.46
2017-07-10T11:57:12.092Z,77.01
2017-07-10T11:58:12.691Z,77.50
2017-07-10T11:59:13.263Z,77.01
2017-07-10T12:00:13.848Z,77.78
2017-07-10T12:01:14.430Z,77.01
2017-07-10T12:02:15.017Z,77.50
2017-07-10T12:03:15.601Z,77.11
2017-07-10T12:04:16.185Z,76.53
2017-07-10T12:05:16.769Z,76.43
2017-07-10T12:06:17.361Z,75.98
2017-07-10T12:07:17.941Z,76.76
2017-07-10T12:08:18.524Z,76.89
2017-07-10T12:09:19.110Z,76.31
2017-07-10T12:10:19.698Z,75.19
2017-07-10T12:11:20.282Z,75.63
2017-07-10T12:12:20.869Z,75.92
2017-07-10T12:13:21.466Z,77.14
2017-07-10T12:14:22.052Z,76.86
2017-07-10T12:15:22.635Z,77.20
2017-07-10T12:16:23.221Z,76.76
2017-07-10T12:17:23.807Z,76.31
2017-07-10T12:18:24.391Z,76.12
2017-07-10T12:19:24.977Z,75.34
2017-07-10T12:20:25.562Z,75.09
2017-07-10T12:21:26.147Z,74.99
2017-07-10T12:22:26.733Z,74.60
2017-07-10T12:23:27.318Z,74.26
2017-07-10T12:24:27.904Z,73.73
2017-07-10T12:25:28.491Z,74.38
2017-07-10T12:26:29.076Z,75.65
2017-07-10T12:27:29.663Z,75.70
2017-07-10T12:28:30.250Z,74.86
2017-07-10T12:29:30.837Z,74.66
2017-07-10T12:30:31.418Z,73.58
2017-07-10T12:31:32.006Z,72.35
2017-07-10T12:32:32.588Z,72.45
2017-07-10T12:33:33.174Z,71.93
2017-07-10T12:34:33.761Z,74.22
2017-07-10T12:35:34.344Z,73.73
2017-07-10T12:36:34.927Z,73.64
2017-07-10T12:37:35.514Z,74.66
2017-07-10T12:38:36.108Z,74.66
2017-07-10T12:39:36.693Z,74.57
2017-07-10T12:40:37.289Z,75.05
2017-07-10T12:41:37.876Z,74.66
2017-07-10T12:42:38.459Z,74.76
2017-07-10T12:43:39.043Z,74.47
2017-07-10T12:44:39.626Z,75.05
2017-07-10T12:45:40.213Z,74.28
2017-07-10T12:46:40.797Z,74.43
2017-07-10T12:47:41.382Z,75.60
2017-07-10T12:48:41.966Z,75.98
2017-07-10T12:49:42.552Z,76.18
2017-07-10T12:50:43.136Z,75.50
2017-07-10T12:51:43.721Z,72.30
2017-07-10T12:52:44.307Z,74.82
2017-07-10T12:53:44.897Z,72.02
2017-07-10T12:54:45.475Z,69.63
2017-07-10T12:55:46.057Z,74.18
2017-07-10T12:56:46.655Z,74.28
2017-07-10T12:57:47.239Z,74.28
2017-07-10T12:58:47.825Z,74.66
2017-07-10T12:59:48.411Z,75.54